Time;durP1;ratioP1;P1;durP2;ratioP2;P2;SDS_P1;SDS_P2;PMS_P1;PMS_P2;Temp;Humidity;BMP_temperature;BMP_pressure;BME280_temperature;BME280_humidity;BME280_pressure;Samples;Min_cycle;Max_cycle;Signal;HPM_P1;HPM_P2
2022/09/30 00:01:45;;;;;;;2.38;0.90;;;9.80;99.90;;;;;;4937001;29;20475;-84
2022/09/30 00:04:28;;;;;;;2.63;1.17;;;9.80;99.90;;;;;;4937463;29;20093;-84
2022/09/30 00:06:54;;;;;;;3.28;0.98;;;9.80;99.90;;;;;;4936817;29;20135;-84
2022/09/30 00:09:20;;;;;;;3.03;0.85;;;9.90;99.90;;;;;;4935732;29;20142;-84
2022/09/30 00:11:46;;;;;;;2.92;0.80;;;9.80;99.90;;;;;;4937855;29;20116;-83
2022/09/30 00:14:17;;;;;;;2.40;1.08;;;9.80;99.90;;;;;;4937487;29;20063;-84
2022/09/30 00:16:44;;;;;;;2.35;0.90;;;9.80;99.90;;;;;;4935883;29;20058;-83
2022/09/30 00:19:09;;;;;;;2.80;1.00;;;9.80;99.90;;;;;;4935634;29;20377;-83
2022/09/30 00:21:35;;;;;;;3.00;1.10;;;9.80;99.90;;;;;;4936064;29;20488;-84
2022/09/30 00:24:03;;;;;;;3.60;1.33;;;9.80;99.90;;;;;;4937194;29;20036;-84
2022/09/30 00:26:29;;;;;;;2.17;0.98;;;9.70;99.90;;;;;;4935752;29;20052;-84
2022/09/30 00:28:57;;;;;;;1.65;1.00;;;9.70;99.90;;;;;;4937308;29;20047;-84
2022/09/30 00:31:26;;;;;;;2.25;0.75;;;9.70;99.90;;;;;;4936345;29;20040;-84
2022/09/30 00:34:07;;;;;;;2.90;1.00;;;9.70;99.90;;;;;;4935711;29;20566;-84
2022/09/30 00:36:51;;;;;;;3.67;1.00;;;9.70;99.90;;;;;;4935720;29;20064;-84
2022/09/30 00:39:20;;;;;;;3.17;0.98;;;9.70;99.90;;;;;;4939042;29;20089;-84
2022/09/30 00:41:50;;;;;;;5.75;1.20;;;9.80;99.90;;;;;;4940615;29;20142;-84
2022/09/30 00:44:46;;;;;;;1.95;1.10;;;9.80;99.90;;;;;;4940335;29;20054;-83
2022/09/30 00:47:27;;;;;;;1.88;0.98;;;9.90;99.90;;;;;;4940774;29;20055;-83
2022/09/30 00:49:57;;;;;;;4.20;2.17;;;9.90;99.90;;;;;;4939836;29;20086;-83
2022/09/30 00:52:23;;;;;;;6.55;3.15;;;10.00;99.90;;;;;;4939292;29;20067;-84
2022/09/30 00:54:50;;;;;;;7.55;2.38;;;10.00;99.90;;;;;;4938962;29;20047;-84
2022/09/30 00:57:16;;;;;;;4.28;1.70;;;10.10;99.90;;;;;;4940433;29;20051;-83
2022/09/30 00:59:45;;;;;;;4.38;1.50;;;10.10;99.90;;;;;;4940833;29;20049;-84
2022/09/30 01:02:13;;;;;;;7.50;1.83;;;10.20;99.90;;;;;;4940558;29;20119;-83
2022/09/30 01:04:41;;;;;;;5.78;1.30;;;10.20;99.90;;;;;;4939875;29;20507;-84
2022/09/30 01:07:08;;;;;;;6.00;1.65;;;10.30;99.90;;;;;;4939220;29;20048;-83
2022/09/30 01:09:39;;;;;;;7.57;1.50;;;10.30;99.90;;;;;;4939264;29;20055;-83
2022/09/30 01:12:12;;;;;;;7.60;2.20;;;10.30;99.90;;;;;;4940030;29;20047;-83
2022/09/30 01:14:39;;;;;;;10.35;1.58;;;10.30;99.90;;;;;;4941618;29;20394;-83
2022/09/30 01:17:20;;;;;;;10.32;1.80;;;10.30;99.90;;;;;;4939301;29;20048;-84
2022/09/30 01:20:05;;;;;;;9.10;1.60;;;10.30;99.90;;;;;;4940628;29;20055;-84
2022/09/30 01:22:42;;;;;;;6.60;1.40;;;10.30;99.90;;;;;;4938801;29;20058;-84
2022/09/30 01:25:14;;;;;;;5.97;1.58;;;10.30;99.90;;;;;;4940506;29;20487;-84
2022/09/30 01:27:48;;;;;;;9.20;1.52;;;10.20;99.90;;;;;;4939036;29;20126;-84
2022/09/30 01:30:20;;;;;;;4.95;1.50;;;10.30;99.90;;;;;;4938912;29;20172;-83
2022/09/30 01:32:55;;;;;;;5.10;1.40;;;10.30;99.90;;;;;;4938768;29;20053;-84
2022/09/30 01:35:49;;;;;;;6.38;1.70;;;10.30;99.90;;;;;;4938463;29;20064;-83
2022/09/30 01:38:28;;;;;;;6.90;1.98;;;10.30;99.90;;;;;;4938564;29;20058;-84
2022/09/30 01:41:05;;;;;;;7.22;1.52;;;10.30;99.90;;;;;;4938934;29;20079;-83
2022/09/30 01:44:02;;;;;;;4.55;1.17;;;10.30;99.90;;;;;;4939749;29;20451;-84
2022/09/30 01:47:00;;;;;;;5.28;1.27;;;10.30;99.90;;;;;;4940113;29;20143;-84
2022/09/30 01:49:38;;;;;;;4.68;1.50;;;10.30;99.90;;;;;;4939699;29;20031;-84
2022/09/30 01:52:15;;;;;;;7.78;1.70;;;10.30;99.90;;;;;;4938203;29;20126;-83
2022/09/30 01:54:59;;;;;;;2.75;1.15;;;10.20;99.90;;;;;;4938509;29;20057;-84
2022/09/30 01:57:40;;;;;;;4.68;1.60;;;10.20;99.90;;;;;;4938642;29;20094;-84
2022/09/30 02:00:09;;;;;;;4.05;1.63;;;10.30;99.90;;;;;;4938922;29;20546;-84
2022/09/30 02:02:42;;;;;;;7.65;1.77;;;10.30;99.90;;;;;;4938726;29;20075;-83
2022/09/30 02:05:18;;;;;;;4.30;1.77;;;10.30;99.90;;;;;;4937928;29;20048;-84
2022/09/30 02:08:19;;;;;;;2.17;1.30;;;10.30;99.90;;;;;;4937901;29;20052;-83
2022/09/30 02:10:51;;;;;;;4.32;1.23;;;10.30;99.90;;;;;;4938331;29;20048;-83
2022/09/30 02:13:36;;;;;;;3.83;1.73;;;10.20;99.90;;;;;;4938304;29;20056;-84
2022/09/30 02:16:11;;;;;;;5.72;1.40;;;10.20;99.90;;;;;;4928747;29;20304;-83
2022/09/30 02:18:54;;;;;;;3.50;1.38;;;10.20;99.90;;;;;;4900486;29;20049;-83
2022/09/30 02:21:25;;;;;;;2.95;1.48;;;10.20;99.90;;;;;;4900935;29;20389;-83
2022/09/30 02:23:58;;;;;;;2.92;1.27;;;10.20;99.90;;;;;;4900319;29;20060;-83
2022/09/30 02:26:27;;;;;;;;;;;10.20;99.90;;;;;;4900353;29;20396;-83
2022/09/30 02:29:22;;;;;;;3.58;1.52;;;10.20;99.90;;;;;;4899589;29;20398;-83
2022/09/30 02:31:52;;;;;;;2.17;1.27;;;10.20;99.90;;;;;;4901150;29;20052;-83
2022/09/30 02:34:26;;;;;;;2.58;1.00;;;10.10;99.90;;;;;;4900062;29;20060;-83
2022/09/30 02:37:04;;;;;;;3.30;1.20;;;10.20;99.90;;;;;;4899814;29;20044;-83
2022/09/30 02:39:47;;;;;;;5.20;1.65;;;10.20;99.90;;;;;;4900683;29;20511;-83
2022/09/30 02:42:19;;;;;;;;;;;10.20;99.90;;;;;;4900742;29;20393;-83
2022/09/30 02:44:47;;;;;;;5.30;1.15;;;10.10;99.90;;;;;;4899704;29;19930;-83
2022/09/30 02:47:30;;;;;;;2.35;0.98;;;10.10;99.90;;;;;;4899796;29;20048;-83
2022/09/30 02:50:17;;;;;;;2.72;0.80;;;10.10;99.90;;;;;;4899784;29;20067;-84
2022/09/30 02:53:13;;;;;;;2.15;1.00;;;10.20;99.90;;;;;;4899307;29;20088;-83
2022/09/30 02:55:48;;;;;;;3.10;1.20;;;10.20;99.90;;;;;;4900921;29;20060;-83
2022/09/30 02:58:20;;;;;;;2.78;1.20;;;10.20;99.90;;;;;;4899846;29;20056;-83
2022/09/30 03:00:47;;;;;;;2.97;1.00;;;10.20;99.90;;;;;;4898981;29;20059;-83
2022/09/30 03:03:42;;;;;;;4.78;1.30;;;10.20;99.90;;;;;;4900218;29;20052;-84
2022/09/30 03:06:09;;;;;;;2.65;1.10;;;10.20;99.90;;;;;;4900907;29;20480;-83
2022/09/30 03:08:35;;;;;;;2.10;1.08;;;10.20;99.90;;;;;;4898855;29;20056;-83
2022/09/30 03:11:01;;;;;;;2.22;0.90;;;10.20;99.90;;;;;;4899505;29;20062;-83
2022/09/30 03:14:01;;;;;;;3.33;1.10;;;10.20;99.90;;;;;;4900299;29;20049;-83
2022/09/30 03:17:04;;;;;;;1.80;1.02;;;10.20;99.90;;;;;;4899169;29;20099;-82
2022/09/30 03:19:54;;;;;;;2.58;0.82;;;10.20;99.90;;;;;;4900155;29;20062;-83
2022/09/30 03:22:50;;;;;;;1.63;1.10;;;10.10;99.90;;;;;;4899430;29;20492;-83
2022/09/30 03:25:25;;;;;;;1.75;0.98;;;10.10;99.90;;;;;;4899656;29;20047;-83
2022/09/30 03:27:59;;;;;;;3.15;1.38;;;10.10;99.90;;;;;;4900271;29;20157;-83
2022/09/30 03:30:28;;;;;;;2.53;1.15;;;10.10;99.90;;;;;;4899430;29;20056;-83
2022/09/30 03:33:19;;;;;;;1.95;0.93;;;10.10;99.90;;;;;;4899222;29;20080;-83
2022/09/30 03:36:08;;;;;;;2.10;1.40;;;10.10;99.90;;;;;;4899921;29;20084;-82
2022/09/30 03:38:49;;;;;;;1.67;1.00;;;10.10;99.90;;;;;;4918822;29;20100;-84
2022/09/30 03:41:37;;;;;;;2.38;1.27;;;10.10;99.90;;;;;;4902132;29;20075;-83
2022/09/30 03:44:22;;;;;;;3.58;1.20;;;10.10;99.90;;;;;;4919296;29;20052;-83
2022/09/30 03:47:07;;;;;;;2.13;1.00;;;10.10;99.90;;;;;;4864200;29;20052;-83
2022/09/30 03:49:38;;;;;;;2.75;1.10;;;10.10;99.90;;;;;;4902471;29;20495;-83
2022/09/30 03:52:06;;;;;;;2.63;1.15;;;10.10;99.90;;;;;;4901649;29;20135;-83
2022/09/30 03:54:32;;;;;;;2.65;1.05;;;10.00;99.90;;;;;;4918860;29;20083;-83
2022/09/30 03:57:02;;;;;;;2.40;1.30;;;10.00;99.90;;;;;;4919519;29;20063;-83
2022/09/30 03:59:28;;;;;;;2.20;1.45;;;10.00;99.90;;;;;;4918497;29;20048;-83
2022/09/30 04:01:55;;;;;;;4.85;1.10;;;10.00;99.90;;;;;;4901408;29;20157;-83
2022/09/30 04:04:21;;;;;;;3.08;0.93;;;10.00;99.90;;;;;;4901555;29;20412;-83
2022/09/30 04:06:47;;;;;;;2.20;0.73;;;9.90;99.90;;;;;;4901600;29;20052;-83
2022/09/30 04:09:12;;;;;;;2.90;1.17;;;9.90;99.90;;;;;;4918804;29;20059;-83
2022/09/30 04:11:38;;;;;;;3.30;1.30;;;9.90;99.90;;;;;;4901315;29;20036;-82
2022/09/30 04:14:04;;;;;;;2.65;1.00;;;9.80;99.90;;;;;;4917786;29;20056;-83
2022/09/30 04:16:31;;;;;;;2.80;1.15;;;9.80;99.90;;;;;;4901581;29;20048;-83
2022/09/30 04:18:57;;;;;;;3.13;1.05;;;9.70;99.90;;;;;;4901541;29;20519;-83
2022/09/30 04:21:23;;;;;;;2.42;0.98;;;9.70;99.90;;;;;;4918562;29;20067;-83
2022/09/30 04:23:49;;;;;;;3.15;1.00;;;9.70;99.90;;;;;;4901212;29;20048;-83
2022/09/30 04:26:16;;;;;;;3.80;0.98;;;9.60;99.90;;;;;;4900878;29;20056;-83
2022/09/30 04:28:42;;;;;;;2.45;1.25;;;9.60;99.90;;;;;;4901130;29;20385;-84
2022/09/30 04:31:10;;;;;;;3.17;1.08;;;9.50;99.90;;;;;;4917455;29;20048;-83
2022/09/30 04:33:36;;;;;;;2.00;1.00;;;9.50;99.90;;;;;;4901333;29;20075;-83
2022/09/30 04:36:02;;;;;;;1.92;1.00;;;9.40;99.90;;;;;;4901375;29;20460;-83
2022/09/30 04:38:28;;;;;;;4.03;0.88;;;9.30;99.90;;;;;;4901599;29;20416;-83
2022/09/30 04:40:54;;;;;;;2.08;0.98;;;9.30;99.90;;;;;;4918396;29;20050;-83
2022/09/30 04:43:24;;;;;;;2.45;0.82;;;9.30;99.90;;;;;;4901480;29;20052;-83
2022/09/30 04:45:54;;;;;;;3.13;1.00;;;9.30;99.90;;;;;;4917982;29;20050;-83
2022/09/30 04:48:23;;;;;;;1.30;0.70;;;9.30;99.90;;;;;;4901589;29;20127;-84
2022/09/30 04:50:49;;;;;;;2.13;0.90;;;9.30;99.90;;;;;;4901259;29;20044;-83
2022/09/30 04:53:18;;;;;;;2.30;0.90;;;9.20;99.90;;;;;;4900491;29;20052;-83
2022/09/30 04:55:44;;;;;;;1.90;0.98;;;9.10;99.90;;;;;;4917505;29;20098;-84
2022/09/30 04:58:11;;;;;;;1.58;0.93;;;9.10;99.90;;;;;;4917429;29;20127;-84
2022/09/30 05:00:37;;;;;;;2.40;0.90;;;9.00;99.90;;;;;;4900677;29;20051;-83
2022/09/30 05:03:03;;;;;;;1.83;1.10;;;8.90;99.90;;;;;;4918447;29;20052;-83
2022/09/30 05:05:29;;;;;;;2.00;1.00;;;8.80;99.90;;;;;;4901077;29;20048;-83
2022/09/30 05:08:05;;;;;;;3.97;1.42;;;8.80;99.90;;;;;;4900898;29;20530;-83
2022/09/30 05:10:31;;;;;;;3.83;2.13;;;8.90;99.90;;;;;;4917648;29;20084;-83
2022/09/30 05:12:57;;;;;;;3.63;2.10;;;8.90;99.90;;;;;;4917156;29;20056;-83
2022/09/30 05:15:23;;;;;;;4.15;2.00;;;8.90;99.90;;;;;;4900229;29;20048;-83
2022/09/30 05:17:49;;;;;;;2.75;1.90;;;8.90;99.90;;;;;;4918170;29;20123;-83
2022/09/30 05:20:15;;;;;;;3.25;1.80;;;8.90;99.90;;;;;;4900440;29;20131;-83
2022/09/30 05:22:41;;;;;;;3.75;2.15;;;8.80;99.90;;;;;;4917934;29;20052;-83
2022/09/30 05:25:07;;;;;;;2.67;1.67;;;8.80;99.90;;;;;;4919882;29;20044;-83
2022/09/30 05:27:32;;;;;;;5.38;2.55;;;8.80;99.90;;;;;;4903015;29;20052;-84
2022/09/30 05:29:58;;;;;;;4.65;2.22;;;8.70;99.90;;;;;;4902025;29;20094;-84
2022/09/30 05:32:24;;;;;;;4.45;2.40;;;8.70;99.90;;;;;;4919905;29;20079;-83
2022/09/30 05:34:49;;;;;;;3.88;2.20;;;8.70;99.90;;;;;;4903101;29;20051;-83
2022/09/30 05:37:15;;;;;;;4.57;2.03;;;8.70;99.90;;;;;;4899754;29;20064;-83
2022/09/30 05:39:41;;;;;;;6.40;2.33;;;8.60;99.90;;;;;;4899731;29;20120;-83
2022/09/30 05:42:07;;;;;;;3.67;2.20;;;8.60;99.90;;;;;;4900063;29;20045;-83
2022/09/30 05:44:33;;;;;;;4.38;2.50;;;8.50;99.90;;;;;;4901002;29;20052;-83
2022/09/30 05:46:58;;;;;;;4.05;2.60;;;8.50;99.90;;;;;;4899940;29;20084;-83
2022/09/30 05:49:25;;;;;;;5.10;2.28;;;8.50;99.90;;;;;;4899683;29;20049;-83
2022/09/30 05:51:51;;;;;;;4.22;2.30;;;8.40;99.90;;;;;;4899544;29;20055;-83
2022/09/30 05:54:17;;;;;;;4.20;2.70;;;8.40;99.90;;;;;;4899802;29;20083;-83
2022/09/30 05:56:43;;;;;;;7.07;3.22;;;8.40;99.90;;;;;;4899570;29;20400;-83
2022/09/30 05:59:09;;;;;;;7.43;3.10;;;8.50;99.90;;;;;;4900829;29;20059;-83
2022/09/30 06:01:35;;;;;;;4.82;3.00;;;8.50;99.90;;;;;;4899468;29;20052;-83
2022/09/30 06:04:00;;;;;;;5.50;3.55;;;8.40;99.90;;;;;;4899378;29;20045;-83
2022/09/30 06:06:26;;;;;;;5.75;4.03;;;8.50;99.90;;;;;;4900559;29;20044;-83
2022/09/30 06:08:52;;;;;;;6.35;3.72;;;8.50;99.90;;;;;;4900541;29;20497;-83
2022/09/30 06:11:22;;;;;;;5.85;3.80;;;8.60;99.90;;;;;;4899220;29;20094;-83
2022/09/30 06:13:48;;;;;;;6.78;3.55;;;8.70;99.90;;;;;;4899269;29;20055;-83
2022/09/30 06:16:16;;;;;;;6.07;3.92;;;8.70;99.90;;;;;;4900633;29;20044;-83
2022/09/30 06:18:42;;;;;;;6.70;4.55;;;8.70;99.90;;;;;;4900358;29;20412;-83
2022/09/30 06:21:11;;;;;;;5.80;4.30;;;8.80;99.90;;;;;;4899372;29;20489;-83
2022/09/30 06:23:37;;;;;;;5.65;4.35;;;8.80;99.90;;;;;;4898976;29;20059;-83
2022/09/30 06:26:04;;;;;;;5.95;4.60;;;8.90;99.90;;;;;;4899213;29;20052;-83
2022/09/30 06:28:33;;;;;;;7.45;4.60;;;8.90;99.90;;;;;;4900424;29;20045;-83
2022/09/30 06:30:58;;;;;;;6.40;4.68;;;9.00;99.90;;;;;;4899209;29;20052;-82
2022/09/30 06:33:24;;;;;;;7.00;5.00;;;9.00;99.90;;;;;;4898806;29;20052;-82
2022/09/30 06:35:50;;;;;;;6.22;4.82;;;9.10;99.90;;;;;;4898744;29;20052;-82
2022/09/30 06:38:16;;;;;;;8.77;4.97;;;9.10;99.90;;;;;;4919137;29;20466;-82
2022/09/30 06:40:48;;;;;;;6.70;5.55;;;9.10;99.90;;;;;;4919060;29;20111;-83
2022/09/30 06:43:15;;;;;;;8.23;4.85;;;9.20;99.90;;;;;;4902217;29;20068;-82
2022/09/30 06:45:40;;;;;;;6.93;5.35;;;9.30;99.90;;;;;;4902503;29;20625;-82
2022/09/30 06:48:09;;;;;;;5.78;4.63;;;9.30;99.90;;;;;;4928116;29;20519;-84
2022/09/30 06:50:35;;;;;;;11.13;6.13;;;9.40;99.90;;;;;;4918721;29;20128;-82
2022/09/30 06:53:05;;;;;;;9.88;5.82;;;9.50;99.90;;;;;;4901494;29;20465;-81
2022/09/30 06:55:31;;;;;;;8.00;6.00;;;9.50;99.90;;;;;;4901739;29;20058;-82
2022/09/30 06:57:57;;;;;;;8.25;5.72;;;9.60;99.90;;;;;;4901616;29;20083;-82
2022/09/30 07:00:25;;;;;;;8.38;5.65;;;9.70;99.90;;;;;;4901322;29;20080;-82
2022/09/30 07:02:54;;;;;;;7.70;5.95;;;9.70;99.90;;;;;;4918563;29;20099;-81
2022/09/30 07:05:19;;;;;;;7.15;5.90;;;9.70;99.90;;;;;;4901488;29;20044;-81
2022/09/30 07:07:45;;;;;;;10.25;6.30;;;9.80;99.90;;;;;;4918373;29;20067;-83
2022/09/30 07:10:11;;;;;;;10.07;6.00;;;9.80;99.90;;;;;;4918286;29;20050;-83
2022/09/30 07:12:37;;;;;;;10.07;6.25;;;9.90;99.90;;;;;;4901162;29;20071;-81
2022/09/30 07:15:02;;;;;;;8.25;5.90;;;9.90;99.90;;;;;;4918088;29;20551;-81
2022/09/30 07:17:28;;;;;;;7.50;5.65;;;10.00;99.90;;;;;;4900951;29;20491;-81
2022/09/30 07:19:54;;;;;;;7.82;6.13;;;10.00;99.90;;;;;;4901513;29;20052;-81
2022/09/30 07:22:26;;;;;;;10.73;5.78;;;10.10;99.90;;;;;;4917987;29;20815;-82
2022/09/30 07:24:52;;;;;;;9.48;5.93;;;10.20;99.90;;;;;;4901329;29;20083;-80
2022/09/30 07:27:18;;;;;;;11.70;6.30;;;10.30;99.90;;;;;;4901198;29;20059;-80
2022/09/30 07:29:44;;;;;;;6.47;5.78;;;10.30;99.90;;;;;;4917845;29;20048;-81
2022/09/30 07:32:11;;;;;;;6.38;5.05;;;10.40;99.90;;;;;;4917806;29;20048;-81
2022/09/30 07:34:41;;;;;;;7.72;5.75;;;10.50;99.90;;;;;;4900869;29;20131;-81
2022/09/30 07:37:08;;;;;;;8.00;5.72;;;10.60;99.90;;;;;;4897459;29;20068;-81
2022/09/30 07:39:34;;;;;;;10.35;5.22;;;10.70;99.90;;;;;;4897665;29;20124;-81
2022/09/30 07:42:01;;;;;;;7.82;5.53;;;10.80;99.90;;;;;;4898710;29;20045;-81
2022/09/30 07:44:27;;;;;;;7.13;5.13;;;10.90;99.90;;;;;;4897372;29;20412;-81
2022/09/30 07:46:53;;;;;;;6.38;5.13;;;10.90;99.90;;;;;;4898755;29;20053;-81
2022/09/30 07:49:24;;;;;;;8.18;5.10;;;11.00;99.90;;;;;;4897596;29;20056;-81
2022/09/30 07:51:54;;;;;;;6.63;4.60;;;11.10;99.90;;;;;;4901718;29;20790;-83
2022/09/30 07:54:24;;;;;;;8.13;4.57;;;11.20;99.90;;;;;;4926123;29;20507;-82
2022/09/30 07:56:51;;;;;;;6.40;4.28;;;11.30;99.90;;;;;;4915642;29;20048;-82
2022/09/30 07:59:17;;;;;;;6.05;4.38;;;11.40;99.90;;;;;;4915546;29;20183;-82
2022/09/30 08:01:44;;;;;;;6.15;3.85;;;11.50;99.90;;;;;;4930887;29;20087;-82
2022/09/30 08:04:11;;;;;;;6.18;4.60;;;11.50;99.90;;;;;;4935001;29;20122;-82
2022/09/30 08:06:44;;;;;;;5.93;3.80;;;11.60;99.90;;;;;;4935241;29;20385;-82
2022/09/30 08:09:09;;;;;;;6.70;3.63;;;11.70;99.90;;;;;;4934118;29;20075;-82
2022/09/30 08:11:37;;;;;;;5.85;3.88;;;11.80;99.90;;;;;;4934850;29;20130;-82
2022/09/30 08:14:04;;;;;;;6.00;3.75;;;11.90;99.90;;;;;;4935036;29;20506;-81
2022/09/30 08:16:30;;;;;;;5.25;3.05;;;12.00;99.90;;;;;;4936129;29;20488;-81
2022/09/30 08:18:58;;;;;;;7.28;3.55;;;12.10;99.90;;;;;;4934986;29;20047;-81
2022/09/30 08:21:24;;;;;;;5.82;3.35;;;12.10;99.90;;;;;;4935391;29;20460;-82
2022/09/30 08:23:50;;;;;;;6.93;3.55;;;12.30;99.90;;;;;;4936150;29;20121;-82
2022/09/30 08:26:16;;;;;;;6.13;3.05;;;12.30;99.90;;;;;;4934148;29;20092;-83
2022/09/30 08:28:45;;;;;;;6.15;2.95;;;12.40;99.90;;;;;;4919483;29;20048;-82
2022/09/30 08:31:14;;;;;;;4.72;2.80;;;12.50;99.90;;;;;;4916816;29;20522;-81
2022/09/30 08:33:41;;;;;;;6.43;2.95;;;12.60;99.90;;;;;;4917106;29;20044;-81
2022/09/30 08:36:10;;;;;;;6.88;2.75;;;12.70;99.90;;;;;;4918689;29;20106;-81
2022/09/30 08:38:36;;;;;;;3.85;2.25;;;12.80;99.90;;;;;;4935865;29;20063;-81
2022/09/30 08:41:14;;;;;;;4.38;2.15;;;13.00;99.90;;;;;;4918702;29;20050;-81
2022/09/30 08:44:00;;;;;;;5.40;1.95;;;13.10;99.90;;;;;;4918830;29;20095;-81
2022/09/30 08:46:54;;;;;;;2.47;1.50;;;13.00;99.90;;;;;;4918589;29;20095;-81
2022/09/30 08:49:29;;;;;;;6.60;1.80;;;13.10;99.90;;;;;;4922321;29;20060;-81
2022/09/30 08:51:57;;;;;;;3.08;1.38;;;13.30;99.90;;;;;;4935740;29;20151;-81
2022/09/30 08:54:28;;;;;;;3.67;1.67;;;13.30;99.90;;;;;;4918794;29;20052;-81
2022/09/30 08:56:55;;;;;;;2.65;1.25;;;13.40;99.90;;;;;;4918734;29;20126;-81
2022/09/30 08:59:25;;;;;;;2.58;1.20;;;13.50;99.90;;;;;;4937865;29;20043;-81
2022/09/30 09:02:03;;;;;;;3.50;1.60;;;13.60;99.90;;;;;;4938522;29;20058;-81
2022/09/30 09:04:29;;;;;;;2.13;1.17;;;13.70;99.90;;;;;;4958588;29;20502;-81
2022/09/30 09:07:13;;;;;;;6.38;1.65;;;13.70;99.90;;;;;;4958452;29;20075;-81
2022/09/30 09:09:59;;;;;;;3.20;1.20;;;13.80;99.90;;;;;;4958759;29;20065;-81
2022/09/30 09:12:54;;;;;;;3.83;1.10;;;14.00;99.90;;;;;;4941324;29;20054;-82
2022/09/30 09:15:33;;;;;;;3.60;1.27;;;14.00;99.90;;;;;;4920923;29;20059;-82
2022/09/30 09:18:36;;;;;;;2.78;1.30;;;14.10;99.90;;;;;;4940852;29;20051;-82
2022/09/30 09:21:08;;;;;;;2.00;1.08;;;14.20;99.90;;;;;;4928905;29;20052;-81
2022/09/30 09:23:34;;;;;;;2.85;1.17;;;14.40;99.90;;;;;;4922564;29;20066;-81
2022/09/30 09:26:00;;;;;;;1.50;0.93;;;14.40;99.90;;;;;;4939038;29;20058;-81
2022/09/30 09:28:58;;;;;;;2.63;1.20;;;14.50;99.90;;;;;;4927290;29;20138;-82
2022/09/30 09:31:24;;;;;;;4.60;1.08;;;14.60;99.90;;;;;;4909371;29;20418;-81
2022/09/30 09:33:51;;;;;;;2.50;1.10;;;14.70;99.90;;;;;;4939779;29;20055;-82
2022/09/30 09:36:30;;;;;;;2.97;0.90;;;14.80;99.90;;;;;;4956486;29;20043;-81
2022/09/30 09:39:06;;;;;;;3.10;1.10;;;14.90;99.90;;;;;;4938361;29;20055;-81
2022/09/30 09:41:55;;;;;;;2.17;1.10;;;14.90;99.90;;;;;;4928060;29;20131;-80
2022/09/30 09:44:37;;;;;;;1.85;1.00;;;14.90;99.90;;;;;;4937103;29;20486;-80
2022/09/30 09:47:04;;;;;;;2.90;1.20;;;15.00;99.90;;;;;;4925434;29;20533;-81
2022/09/30 09:49:38;;;;;;;2.03;1.25;;;15.10;99.90;;;;;;4935778;29;20047;-82
2022/09/30 09:52:05;;;;;;;2.30;1.20;;;15.20;99.90;;;;;;4939326;29;20051;-83
2022/09/30 09:54:35;;;;;;;3.58;1.55;;;15.30;99.90;;;;;;4939241;29;20055;-83
2022/09/30 09:57:08;;;;;;;4.90;1.17;;;15.40;99.90;;;;;;4956788;29;20074;-83
2022/09/30 09:59:35;;;;;;;2.30;0.90;;;15.40;99.90;;;;;;4956429;29;20557;-83
2022/09/30 10:02:01;;;;;;;2.20;1.05;;;15.50;99.90;;;;;;4947811;29;20044;-83
2022/09/30 10:04:31;;;;;;;2.30;1.20;;;15.50;99.90;;;;;;4929715;29;20058;-82
2022/09/30 10:06:59;;;;;;;2.80;0.90;;;15.50;99.90;;;;;;4932672;29;20547;-82
2022/09/30 10:09:27;;;;;;;1.75;1.00;;;15.40;99.90;;;;;;4936186;28;20183;-81
2022/09/30 10:12:05;;;;;;;2.50;0.95;;;15.50;99.90;;;;;;4937190;29;20047;-83
2022/09/30 10:15:01;;;;;;;2.60;0.80;;;15.70;99.90;;;;;;4939403;29;20051;-86
2022/09/30 10:17:31;;;;;;;1.70;0.80;;;15.60;99.90;;;;;;4939199;29;20050;-83
2022/09/30 10:20:14;;;;;;;1.33;0.60;;;15.80;99.90;;;;;;4939035;29;20047;-81
2022/09/30 10:22:40;;;;;;;2.40;0.70;;;15.90;99.90;;;;;;4956489;29;20098;-81
2022/09/30 10:25:22;;;;;;;2.50;0.77;;;15.90;99.90;;;;;;4939004;29;20050;-82
2022/09/30 10:27:58;;;;;;;1.17;0.50;;;16.00;99.90;;;;;;4956435;29;20126;-81
2022/09/30 10:31:06;;;;;;;1.38;0.70;;;16.00;99.90;;;;;;4955966;29;20410;-83
2022/09/30 10:34:03;;;;;;;2.85;0.70;;;16.20;99.90;;;;;;4927079;29;20491;-80
2022/09/30 10:36:34;;;;;;;1.65;0.70;;;16.20;99.90;;;;;;4887857;28;2002569;-82
2022/09/30 10:39:08;;;;;;;1.00;0.52;;;16.30;99.90;;;;;;4939665;29;20058;-82
2022/09/30 10:41:37;;;;;;;1.75;0.80;;;16.40;99.90;;;;;;4956968;29;20442;-81
2022/09/30 10:44:11;;;;;;;2.92;1.05;;;16.50;99.90;;;;;;4939583;29;20050;-82
2022/09/30 10:46:39;;;;;;;2.10;0.90;;;16.20;99.90;;;;;;4939606;29;20062;-85
2022/09/30 10:49:26;;;;;;;4.40;0.95;;;16.10;99.90;;;;;;4939527;29;20075;-83
2022/09/30 10:51:53;;;;;;;2.90;1.08;;;16.20;99.90;;;;;;4939841;29;20096;-82
2022/09/30 10:54:53;;;;;;;2.75;1.30;;;16.30;99.90;;;;;;4939355;29;20058;-81
2022/09/30 10:57:27;;;;;;;3.03;1.30;;;16.50;99.90;;;;;;4939548;29;20039;-81
2022/09/30 11:00:17;;;;;;;2.75;1.48;;;16.60;99.90;;;;;;4956639;29;20122;-81
2022/09/30 11:02:45;;;;;;;2.60;1.80;;;16.60;99.90;;;;;;4942362;29;20066;-81
2022/09/30 11:05:26;;;;;;;3.05;2.03;;;16.70;99.90;;;;;;4939473;29;20047;-82
2022/09/30 11:08:04;;;;;;;4.57;2.30;;;16.50;99.90;;;;;;4956722;29;20058;-81
2022/09/30 11:11:02;;;;;;;4.35;2.67;;;16.60;99.90;;;;;;4939495;29;20062;-87
2022/09/30 11:13:27;;;;;;;4.00;2.95;;;16.60;99.90;;;;;;4938994;29;20495;-85
2022/09/30 11:16:09;;;;;;;3.80;2.78;;;16.70;99.90;;;;;;4939252;29;20050;-87
2022/09/30 11:18:44;;;;;;;5.33;3.87;;;17.00;99.90;;;;;;4956259;29;20051;-87
2022/09/30 11:21:17;;;;;;;4.57;3.10;;;16.90;99.90;;;;;;4938800;28;20051;-85
2022/09/30 11:23:53;;;;;;;4.45;3.38;;;16.80;99.90;;;;;;4938877;29;20409;-85
2022/09/30 11:26:40;;;;;;;5.43;3.45;;;16.60;99.90;;;;;;4939067;29;20051;-84
2022/09/30 11:29:05;;;;;;;6.18;3.60;;;16.40;99.90;;;;;;4939010;29;20098;-86
2022/09/30 11:31:45;;;;;;;4.85;2.70;;;16.40;99.90;;;;;;4938680;29;20051;-85
2022/09/30 11:34:30;;;;;;;2.92;1.30;;;16.60;99.90;;;;;;4938756;29;20051;-85
2022/09/30 11:37:15;;;;;;;2.63;1.00;;;16.50;99.90;;;;;;4935416;29;20059;-80
2022/09/30 11:39:50;;;;;;;3.38;0.90;;;16.60;99.90;;;;;;4937015;29;20131;-82
2022/09/30 11:42:28;;;;;;;2.58;1.00;;;16.70;99.90;;;;;;4936538;29;20052;-82
2022/09/30 11:45:08;;;;;;;3.88;1.50;;;16.80;99.90;;;;;;4936939;29;20058;-83
2022/09/30 11:47:43;;;;;;;1.90;1.08;;;16.80;99.90;;;;;;4935336;29;20488;-81
2022/09/30 11:50:27;;;;;;;2.28;1.20;;;16.60;99.90;;;;;;4936896;29;20071;-81
2022/09/30 11:53:04;;;;;;;4.40;1.50;;;16.70;99.90;;;;;;4935191;29;20486;-81
2022/09/30 11:55:56;;;;;;;3.05;1.48;;;16.60;99.90;;;;;;4936645;29;20074;-83
2022/09/30 11:58:27;;;;;;;3.53;2.00;;;16.70;99.90;;;;;;4936575;29;20075;-81
2022/09/30 12:01:16;;;;;;;3.85;1.60;;;16.70;99.90;;;;;;4935000;29;20044;-81
2022/09/30 12:03:48;;;;;;;2.97;1.20;;;16.70;99.90;;;;;;4920913;29;20566;-81
2022/09/30 12:06:44;;;;;;;2.20;1.10;;;16.50;99.90;;;;;;4935041;29;20052;-81
2022/09/30 12:09:27;;;;;;;2.55;1.20;;;16.40;99.90;;;;;;4918472;29;20123;-82
2022/09/30 12:11:59;;;;;;;5.47;1.30;;;16.40;99.90;;;;;;4936290;29;20055;-82
2022/09/30 12:14:34;;;;;;;2.25;1.38;;;16.70;99.90;;;;;;4936324;29;20043;-82
2022/09/30 12:17:05;;;;;;;3.47;1.80;;;16.60;99.90;;;;;;4936293;29;20053;-81
2022/09/30 12:19:43;;;;;;;2.80;1.38;;;16.80;99.90;;;;;;4936396;29;20102;-81
2022/09/30 12:22:27;;;;;;;3.22;0.93;;;16.90;99.90;;;;;;4935162;29;20052;-81
2022/09/30 12:24:53;;;;;;;3.10;1.20;;;17.00;99.90;;;;;;4932929;29;20044;-81
2022/09/30 12:27:34;;;;;;;2.35;1.38;;;16.90;99.90;;;;;;4915801;29;20112;-80
2022/09/30 12:30:16;;;;;;;3.03;1.83;;;16.80;99.90;;;;;;4916064;29;20059;-81
2022/09/30 12:33:13;;;;;;;1.30;0.90;;;16.70;99.90;;;;;;4915943;29;20080;-81
2022/09/30 12:35:51;;;;;;;2.45;0.73;;;16.70;99.90;;;;;;4920067;29;20074;-82
2022/09/30 12:39:09;;;;;;;1.15;0.70;;;16.70;99.90;;;;;;4919630;29;20056;-81
2022/09/30 12:42:03;;;;;;;0.80;0.30;;;16.90;99.90;;;;;;4891800;29;20056;-81
2022/09/30 12:44:43;;;;;;;1.48;0.43;;;16.90;99.90;;;;;;4903695;29;20083;-80
2022/09/30 12:47:30;;;;;;;1.35;0.38;;;16.80;99.90;;;;;;4934747;29;20122;-81
2022/09/30 12:49:59;;;;;;;1.52;0.30;;;16.70;99.90;;;;;;4938482;29;20495;-80
2022/09/30 12:52:31;;;;;;;1.67;0.30;;;16.60;99.90;;;;;;4939788;29;20036;-80
2022/09/30 12:55:01;;;;;;;1.75;0.20;;;16.70;99.90;;;;;;4938355;29;20456;-80
2022/09/30 12:57:31;;;;;;;0.20;0.20;;;16.80;99.90;;;;;;4938927;29;20039;-82
2022/09/30 13:00:20;;;;;;;0.88;0.15;;;16.80;99.90;;;;;;4937457;29;20055;-82
2022/09/30 13:02:58;;;;;;;2.22;0.30;;;16.80;99.90;;;;;;4936943;29;20051;-83
2022/09/30 13:05:43;;;;;;;1.77;0.30;;;16.90;99.90;;;;;;4939182;29;20048;-83
2022/09/30 13:08:15;;;;;;;1.55;0.30;;;16.90;99.90;;;;;;4938202;29;20102;-82
2022/09/30 13:10:46;;;;;;;2.30;0.32;;;17.00;99.90;;;;;;4939295;29;20051;-82
2022/09/30 13:13:22;;;;;;;1.38;0.40;;;16.90;99.90;;;;;;4937933;29;20059;-81
2022/09/30 13:15:49;;;;;;;3.08;0.40;;;16.90;99.90;;;;;;4939435;29;20044;-82
2022/09/30 13:18:18;;;;;;;1.65;0.65;;;17.00;99.90;;;;;;4937290;29;20055;-82
2022/09/30 13:20:56;;;;;;;1.90;0.40;;;16.90;99.90;;;;;;4939086;29;20055;-82
2022/09/30 13:23:46;;;;;;;0.80;0.40;;;17.00;99.90;;;;;;4938131;29;20562;-82